Heather, Washington
Current Conditions -  °F | °C
As of 4:27 AM on Monday 26 Jan 2015 (Local Time) from KHQM Reporting Station
Moderate Fog Moderate Fog  
Wind Chill: 39°   Ceiling: 100
Heat Index: 45°   Visibility: 0.5mi
Dew Point: 45°   Wind: 13mph
Humidity: 100%   Direction: 80°E
Pressure: 29.9"   Gusts: NA
Location:  46.8576°N, 123.936°W
Report Text: KHQM 261227Z AUTO 08011KT 1/2SM FG VV001 07/07 A2990 RMK AO2 T00720072
Loading
Personal Weather Stations






























Interactive Weather Map New forecast layout! Learn more

10-Day Weather Forecast

Advertisements
Track Severe Weather on mobile